createdAt,value
2023-05-04T00:03:56.272Z,15.79
2023-05-04T00:08:59.323Z,18.60
2023-05-04T00:14:02.997Z,18.25
2023-05-04T00:19:05.954Z,16.90
2023-05-04T00:24:08.919Z,16.11
2023-05-04T00:29:12.095Z,15.49
2023-05-04T00:34:15.694Z,15.03
2023-05-04T00:39:18.697Z,14.63
2023-05-04T00:44:24.108Z,14.29
2023-05-04T00:49:27.341Z,14.02
2023-05-04T00:54:30.639Z,13.80
2023-05-04T01:01:35.047Z,14.59
2023-05-04T01:07:01.568Z,17.41
2023-05-04T01:12:56.758Z,16.57
2023-05-04T01:18:00.089Z,15.37
2023-05-04T01:23:04.065Z,14.76
2023-05-04T01:28:24.532Z,14.29
2023-05-04T01:33:29.047Z,13.87
2023-05-04T01:38:32.130Z,13.56
2023-05-04T01:43:36.567Z,13.29
2023-05-04T01:48:40.885Z,13.08
2023-05-04T01:53:43.862Z,12.89
2023-05-04T01:58:46.905Z,12.75
2023-05-04T02:03:50.056Z,12.61
2023-05-04T02:08:53.618Z,12.47
2023-05-04T02:13:56.574Z,12.35
2023-05-04T02:18:59.877Z,12.24
2023-05-04T02:24:05.084Z,12.14
2023-05-04T02:29:08.197Z,12.08
2023-05-04T02:34:11.241Z,11.99
2023-05-04T02:39:23.068Z,11.89
2023-05-04T02:44:25.999Z,13.09
2023-05-04T02:49:28.981Z,16.11
2023-05-04T02:54:32.035Z,15.38
2023-05-04T02:59:35.015Z,14.25
2023-05-04T03:04:38.233Z,13.56
2023-05-04T03:09:43.793Z,13.03
2023-05-04T03:14:47.790Z,12.60
2023-05-04T03:19:50.846Z,12.27
2023-05-04T03:24:54.269Z,11.98
2023-05-04T03:29:57.660Z,11.72
2023-05-04T03:35:03.844Z,11.53
2023-05-04T03:40:10.197Z,11.38
2023-05-04T03:45:13.254Z,11.25
2023-05-04T03:50:16.226Z,11.15
2023-05-04T03:55:19.375Z,11.13
2023-05-04T04:00:25.135Z,11.11
2023-05-04T04:05:33.037Z,11.09
2023-05-04T04:10:37.200Z,11.08
2023-05-04T04:15:41.239Z,11.06
2023-05-04T04:20:46.079Z,11.03
2023-05-04T04:25:49.010Z,11.04
2023-05-04T04:30:53.330Z,11.07
2023-05-04T04:35:56.733Z,11.09
2023-05-04T04:40:59.863Z,11.12
2023-05-04T04:46:04.224Z,11.15
2023-05-04T04:51:11.289Z,11.19
2023-05-04T04:56:14.305Z,11.25
2023-05-04T05:01:18.929Z,11.30
2023-05-04T05:06:22.289Z,11.37
2023-05-04T05:11:25.852Z,11.43
2023-05-04T05:16:28.916Z,11.52
2023-05-04T05:21:31.928Z,11.62
2023-05-04T05:26:35.498Z,11.72
2023-05-04T05:31:38.726Z,11.81
2023-05-04T05:36:41.799Z,11.92
2023-05-04T05:41:45.043Z,12.01
2023-05-04T05:46:48.713Z,12.12
2023-05-04T05:51:51.783Z,12.24
2023-05-04T05:56:54.792Z,12.35
2023-05-04T06:01:57.934Z,12.45
2023-05-04T06:07:00.913Z,12.54
2023-05-04T06:12:06.515Z,12.62
2023-05-04T06:17:10.174Z,12.68
2023-05-04T06:22:13.224Z,12.76
2023-05-04T06:27:16.428Z,12.84
2023-05-04T06:32:19.749Z,12.92
2023-05-04T06:37:23.413Z,13.02
2023-05-04T06:42:31.214Z,13.13
2023-05-04T06:47:38.227Z,13.24
2023-05-04T06:52:43.589Z,13.33
2023-05-04T06:57:46.532Z,13.43
2023-05-04T07:02:49.663Z,13.54
2023-05-04T07:07:53.530Z,13.66
2023-05-04T07:12:56.832Z,13.78
2023-05-04T07:18:00.150Z,13.87
2023-05-04T07:23:04.056Z,13.96
2023-05-04T07:28:07.362Z,14.07
2023-05-04T07:33:11.287Z,14.17
2023-05-04T07:38:14.418Z,14.26
2023-05-04T09:45:43.957Z,17.15
2023-05-04T09:50:54.739Z,17.28
2023-05-04T09:56:18.108Z,17.30
2023-05-04T10:01:21.427Z,17.14
2023-05-04T10:06:33.251Z,17.01
2023-05-04T10:11:37.652Z,17.13
2023-05-04T10:17:02.107Z,17.39
2023-05-04T10:22:33.393Z,17.54
2023-05-04T10:27:57.387Z,17.81
2023-05-04T10:33:02.694Z,17.88
2023-05-04T10:38:06.584Z,17.97
2023-05-04T10:43:13.250Z,18.19
2023-05-04T10:48:16.978Z,18.42
2023-05-04T10:53:34.049Z,18.85
2023-05-04T10:58:37.098Z,19.36
2023-05-04T11:03:43.336Z,19.82
2023-05-04T11:08:49.342Z,20.28
2023-05-04T11:13:52.600Z,20.64
2023-05-04T11:19:09.933Z,20.87
2023-05-04T11:24:13.826Z,21.03
2023-05-04T11:29:16.876Z,21.28
2023-05-04T11:34:21.149Z,21.51
2023-05-04T11:39:31.904Z,21.52
2023-05-04T11:44:37.009Z,21.47
2023-05-04T11:49:40.212Z,21.47
2023-05-04T11:54:43.204Z,21.38
2023-05-04T11:59:49.668Z,21.30
2023-05-04T12:04:53.146Z,21.14
2023-05-04T12:09:56.236Z,21.18
2023-05-04T12:14:59.322Z,21.36
2023-05-04T12:20:03.220Z,21.40
2023-05-04T12:25:07.585Z,21.59
2023-05-04T12:30:11.666Z,21.86
2023-05-04T12:35:14.845Z,22.09
2023-05-04T12:40:28.151Z,22.22
2023-05-04T12:45:32.091Z,22.40
2023-05-04T12:50:36.027Z,22.63
2023-05-04T12:55:39.283Z,22.81
2023-05-04T13:00:45.980Z,22.92
2023-05-04T13:05:49.954Z,22.99
2023-05-04T13:10:53.155Z,23.04
2023-05-04T13:15:56.679Z,23.18
2023-05-04T13:20:59.900Z,23.31
2023-05-04T13:26:03.441Z,23.41
2023-05-04T13:31:06.493Z,23.50
2023-05-04T13:36:09.643Z,23.47
2023-05-04T13:41:12.998Z,23.48
2023-05-04T13:46:16.302Z,23.46
2023-05-04T13:51:20.076Z,23.52
2023-05-04T13:56:23.410Z,23.64
2023-05-04T14:01:31.602Z,23.61
2023-05-04T14:06:35.018Z,23.66
2023-05-04T14:13:17.050Z,23.59
2023-05-04T14:18:20.134Z,23.58
2023-05-04T14:23:23.809Z,23.51
2023-05-04T14:28:26.938Z,23.45
2023-05-04T14:33:32.822Z,23.18
2023-05-04T14:38:36.263Z,22.94
2023-05-04T14:43:39.405Z,22.69
2023-05-04T14:48:42.541Z,22.49
2023-05-04T14:53:47.958Z,22.30
2023-05-04T14:58:50.947Z,22.12
2023-05-04T15:09:58.047Z,21.63
2023-05-04T15:15:01.371Z,21.41
2023-05-04T15:20:06.405Z,21.21
2023-05-04T15:25:10.197Z,21.12
2023-05-04T15:30:13.705Z,21.02
2023-05-04T15:35:17.004Z,20.88
2023-05-04T15:40:20.071Z,20.78
2023-05-04T15:45:23.159Z,20.89
2023-05-04T15:50:26.916Z,21.09
2023-05-04T15:55:29.968Z,21.53
2023-05-04T16:00:34.679Z,22.36
2023-05-04T16:05:37.925Z,22.93
2023-05-04T16:10:41.588Z,23.13
2023-05-04T16:15:44.893Z,23.64
2023-05-04T16:20:48.709Z,23.73
2023-05-04T16:25:51.930Z,23.15
2023-05-04T16:30:55.018Z,22.35
2023-05-04T16:35:58.273Z,21.76
2023-05-04T16:41:01.362Z,21.24
2023-05-04T16:46:04.938Z,20.74
2023-05-04T16:51:12.086Z,20.23
2023-05-04T16:56:19.607Z,19.84
2023-05-04T17:01:22.735Z,19.50
2023-05-04T17:06:26.987Z,19.23
2023-05-04T17:11:32.176Z,19.05
2023-05-04T17:16:36.097Z,18.90
2023-05-04T17:21:39.666Z,18.68
2023-05-04T17:26:54.180Z,18.54
2023-05-04T17:31:57.242Z,18.40
2023-05-04T17:37:00.867Z,18.25
2023-05-04T17:42:04.327Z,18.15
2023-05-04T17:47:08.032Z,18.04
2023-05-04T17:52:13.083Z,17.93
2023-05-04T17:57:27.082Z,17.82
2023-05-04T18:02:31.852Z,17.70
2023-05-04T18:07:35.488Z,17.58
2023-05-04T18:12:38.719Z,17.43
2023-05-04T18:17:42.128Z,17.30
2023-05-04T18:22:45.579Z,17.20
2023-05-04T18:27:48.679Z,17.10
2023-05-04T18:32:51.687Z,17.01
2023-05-04T18:37:54.734Z,16.92
2023-05-04T18:42:57.766Z,16.82
2023-05-04T18:48:00.813Z,16.73
2023-05-04T18:53:05.818Z,16.67
2023-05-04T18:58:08.868Z,16.62
2023-05-04T19:03:11.916Z,16.53
2023-05-04T19:08:14.991Z,16.46
2023-05-04T19:13:18.260Z,16.39
2023-05-04T19:18:26.174Z,16.32
2023-05-04T19:23:29.152Z,16.27
2023-05-04T19:28:32.257Z,16.25
2023-05-04T19:33:47.274Z,16.19
2023-05-04T19:38:51.500Z,16.11
2023-05-04T19:43:54.492Z,16.02
2023-05-04T19:48:57.680Z,15.94
2023-05-04T19:54:00.775Z,15.84
2023-05-04T19:59:03.851Z,15.73
2023-05-04T20:04:08.499Z,15.64
2023-05-04T20:09:11.692Z,15.56
2023-05-04T20:14:14.731Z,15.47
2023-05-04T20:19:18.692Z,15.37
2023-05-04T20:24:22.432Z,15.29
2023-05-04T20:29:25.606Z,15.21
2023-05-04T20:34:28.810Z,15.13
2023-05-04T20:39:32.563Z,15.06
2023-05-04T20:44:35.530Z,14.99
2023-05-04T20:49:38.729Z,14.92
2023-05-04T20:54:42.150Z,14.86
2023-05-04T20:59:45.266Z,14.79
2023-05-04T21:04:48.673Z,14.72
2023-05-04T21:09:56.807Z,14.64
2023-05-04T21:14:59.849Z,14.57
2023-05-04T21:20:03.414Z,14.49
2023-05-04T21:25:07.192Z,14.41
2023-05-04T21:30:11.384Z,14.37
2023-05-04T21:35:27.506Z,14.33
2023-05-04T21:40:30.751Z,14.28
2023-05-04T21:45:33.919Z,14.25
2023-05-04T21:50:37.049Z,14.21
2023-05-04T21:55:40.014Z,14.19
2023-05-04T22:00:43.794Z,14.16
2023-05-04T22:05:57.944Z,14.13
2023-05-04T22:11:01.309Z,14.09
2023-05-04T22:16:04.746Z,14.04
2023-05-04T22:21:07.882Z,13.99
2023-05-04T22:26:10.984Z,13.95
2023-05-04T22:31:14.136Z,13.91
2023-05-04T22:36:17.240Z,13.86
2023-05-04T22:41:21.222Z,13.82
2023-05-04T22:46:25.774Z,13.78
2023-05-04T22:51:28.910Z,13.74
2023-05-04T22:56:33.258Z,13.70
2023-05-04T23:01:42.729Z,13.67
2023-05-04T23:06:45.774Z,13.63
2023-05-04T23:11:49.074Z,13.59
2023-05-04T23:16:52.073Z,13.56
2023-05-04T23:21:55.438Z,13.51
2023-05-04T23:26:59.001Z,13.48
2023-05-04T23:32:02.186Z,13.44
2023-05-04T23:37:05.434Z,13.40
2023-05-04T23:42:09.087Z,13.39
2023-05-04T23:47:12.103Z,13.37
2023-05-04T23:52:15.155Z,13.34
2023-05-04T23:57:18.186Z,13.33
